Sunday, July 22, 2018, 12:48 AM EDT
Back to Local

KPBG, Plattsburgh International Airport

Location: Plattsburgh, NY, United States Lat: 44.65
Local Time: 12:48 AM EDT ( 4:48 GMT) Lon: -73.467
Time Zone: US/Eastern Elev: 239 ft

Show me the last for .
Show Decoded

2018-07-21 23:53 METAR KPBG 220353Z AUTO 17007KT 10SM CLR 21/14 A3005 RMK AO2 SLP176 T02110139 =
2018-07-21 22:53 METAR KPBG 220253Z AUTO 17006KT 10SM CLR 22/13 A3005 RMK AO2 SLP176 T02170133
                 51011 =
2018-07-21 21:53 METAR KPBG 220153Z AUTO 16004KT 10SM CLR 22/14 A3005 RMK AO2 SLP175 T02220139 =
2018-07-21 20:53 METAR KPBG 220053Z AUTO 17004KT 10SM CLR 23/14 A3003 RMK AO2 SLP170 T02330144 =
2018-07-21 19:53 METAR KPBG 212353Z AUTO 16006KT 10SM CLR 26/14 A3002 RMK AO2 SLP165 T02560139
                 10294 20256 55001 =
2018-07-21 18:53 METAR KPBG 212253Z AUTO 11005KT 10SM CLR 28/13 A3000 RMK AO2 SLP160 T02830128 =
2018-07-21 17:53 METAR KPBG 212153Z AUTO 10005KT 10SM CLR 28/13 A3001 RMK AO2 SLP161 T02830133 =
2018-07-21 16:53 METAR KPBG 212053Z AUTO 14006KT 10SM CLR 29/13 A3002 RMK AO2 SLP166 T02890133
                 56015 =
2018-07-21 15:53 METAR KPBG 211953Z AUTO 13005KT 10SM CLR 28/14 A3004 RMK AO2 SLP171 T02830144 =
2018-07-21 14:53 METAR KPBG 211853Z AUTO 16006KT 10SM CLR 28/15 A3005 RMK AO2 SLP175 T02830150 =
2018-07-21 13:53 METAR KPBG 211753Z AUTO 14006KT 10SM CLR 27/14 A3007 RMK AO2 SLP181 T02670144
                 10272 20206 58014 =
2018-07-21 12:53 METAR KPBG 211653Z AUTO 14008KT 10SM CLR 26/14 A3008 RMK AO2 SLP186 T02610139 =
2018-07-21 11:53 METAR KPBG 211553Z AUTO 13010KT 10SM CLR 26/14 A3010 RMK AO2 SLP192 T02560144 =
2018-07-21 10:53 METAR KPBG 211453Z AUTO 13011KT 10SM CLR 25/15 A3011 RMK AO2 SLP195 T02500150
                 58002 =
2018-07-21 09:53 METAR KPBG 211353Z AUTO 14010KT 10SM CLR 23/16 A3011 RMK AO2 SLP195 T02280156 =
2018-07-21 08:53 METAR KPBG 211253Z AUTO 16009KT 10SM CLR 23/15 A3011 RMK AO2 SLP196 T02330150 =
2018-07-21 07:53 METAR KPBG 211153Z AUTO 00000KT 10SM CLR 21/15 A3011 RMK AO2 SLP195 T02060150
                 10206 20128 51009 =
2018-07-21 06:53 METAR KPBG 211053Z AUTO 00000KT 10SM CLR 15/13 A3011 RMK AO2 SLP195 T01500133 =
2018-07-21 05:53 METAR KPBG 210953Z AUTO 00000KT 10SM CLR 13/13 A3011 RMK AO2 SLP194 T01330128 =
2018-07-21 04:53 METAR KPBG 210853Z AUTO 00000KT 10SM CLR 13/13 A3008 RMK AO2 SLP187 T01330128
                 53009 =
2018-07-21 03:53 METAR KPBG 210753Z AUTO 00000KT 10SM CLR 14/13 A3007 RMK AO2 SLP182 T01440133 =
2018-07-21 02:53 METAR KPBG 210653Z AUTO 00000KT 10SM CLR 14/13 A3006 RMK AO2 SLP180 T01390128 =
2018-07-21 01:53 METAR KPBG 210553Z AUTO 26003KT 10SM CLR 17/13 A3006 RMK AO2 SLP178 T01720133
                 10272 20167 55001 =
2018-07-21 00:53 METAR KPBG 210453Z AUTO 18004KT 10SM CLR 19/14 A3005 RMK AO2 SLP176 T01940139
                 403060111 =

Support USWX by starting your Amazon purchase here.